createdAt,value
2023-05-06T00:02:10.288Z,3.37
2023-05-06T00:04:40.876Z,3.07
2023-05-06T00:07:08.856Z,2.90
2023-05-06T00:09:36.901Z,2.50
2023-05-06T00:12:05.620Z,3.23
2023-05-06T00:14:33.756Z,3.23
2023-05-06T00:17:01.860Z,3.63
2023-05-06T00:19:29.743Z,2.80
2023-05-06T00:21:59.628Z,3.33
2023-05-06T00:24:27.587Z,3.73
2023-05-06T00:26:55.479Z,2.73
2023-05-06T00:29:24.877Z,3.00
2023-05-06T00:31:52.960Z,3.30
2023-05-06T00:34:21.009Z,3.10
2023-05-06T00:36:48.903Z,3.40
2023-05-06T00:39:18.395Z,2.80
2023-05-06T00:41:46.295Z,3.33
2023-05-06T00:44:14.323Z,3.37
2023-05-06T00:46:44.176Z,3.57
2023-05-06T00:49:13.317Z,3.42
2023-05-06T00:51:41.509Z,3.00
2023-05-06T00:54:09.466Z,3.67
2023-05-06T00:56:38.773Z,3.40
2023-05-06T00:59:06.886Z,3.63
2023-05-06T01:01:35.065Z,4.53
2023-05-06T01:04:03.105Z,3.20
2023-05-06T01:06:46.444Z,3.50
2023-05-06T01:09:21.880Z,4.33
2023-05-06T01:11:56.432Z,3.10
2023-05-06T01:14:31.561Z,3.63
2023-05-06T01:17:04.634Z,3.30
2023-05-06T01:19:41.797Z,4.70
2023-05-06T01:22:11.695Z,4.10
2023-05-06T01:24:42.993Z,3.73
2023-05-06T01:27:12.347Z,3.83
2023-05-06T01:29:42.891Z,3.47
2023-05-06T01:32:35.624Z,4.23
2023-05-06T01:35:12.060Z,3.90
2023-05-06T01:37:47.360Z,3.43
2023-05-06T01:40:19.035Z,3.43
2023-05-06T01:42:49.208Z,4.10
2023-05-06T01:45:18.986Z,3.60
2023-05-06T01:47:48.019Z,3.07
2023-05-06T01:50:16.738Z,3.63
2023-05-06T01:52:44.700Z,3.40
2023-05-06T01:55:12.658Z,3.37
2023-05-06T01:57:41.903Z,3.80
2023-05-06T02:00:10.956Z,3.70
2023-05-06T02:02:39.087Z,3.93
2023-05-06T02:05:08.516Z,3.77
2023-05-06T02:07:36.763Z,4.00
2023-05-06T02:10:04.968Z,4.20
2023-05-06T02:12:32.886Z,3.57
2023-05-06T02:15:02.511Z,3.80
2023-05-06T02:17:30.420Z,3.60
2023-05-06T02:19:58.299Z,3.60
2023-05-06T02:22:26.534Z,3.97
2023-05-06T02:24:54.514Z,3.60
2023-05-06T02:27:22.952Z,3.33
2023-05-06T02:29:50.978Z,4.10
2023-05-06T02:32:20.373Z,3.90
2023-05-06T02:34:48.270Z,3.77
2023-05-06T02:37:16.329Z,3.20
2023-05-06T02:39:44.224Z,3.53
2023-05-06T02:42:14.802Z,3.40
2023-05-06T02:44:42.998Z,3.80
2023-05-06T02:47:11.029Z,3.60
2023-05-06T02:49:40.492Z,3.40
2023-05-06T02:52:08.388Z,4.57
2023-05-06T02:54:36.513Z,3.00
2023-05-06T02:57:04.394Z,3.67
2023-05-06T02:59:32.507Z,3.90
2023-05-06T03:02:00.403Z,3.90
2023-05-06T03:04:28.470Z,3.67
2023-05-06T03:06:57.956Z,4.00
2023-05-06T03:09:25.916Z,4.30
2023-05-06T03:11:53.854Z,4.07
2023-05-06T03:14:21.781Z,3.40
2023-05-06T03:16:49.773Z,4.03
2023-05-06T03:19:17.812Z,4.03
2023-05-06T03:21:46.006Z,4.33
2023-05-06T03:24:15.243Z,4.17
2023-05-06T03:26:43.391Z,4.10
2023-05-06T03:29:11.387Z,3.40
2023-05-06T03:31:39.331Z,3.97
2023-05-06T03:34:07.284Z,4.03
2023-05-06T03:36:35.214Z,3.90
2023-05-06T03:39:03.404Z,3.90
2023-05-06T03:41:33.047Z,3.70
2023-05-06T03:44:01.072Z,3.83
2023-05-06T03:46:29.186Z,4.40
2023-05-06T03:48:58.276Z,3.70
2023-05-06T03:51:26.416Z,3.63
2023-05-06T03:53:55.027Z,4.93
2023-05-06T03:56:23.034Z,3.33
2023-05-06T03:58:54.207Z,3.90
2023-05-06T04:01:22.219Z,3.90
2023-05-06T04:03:50.669Z,3.90
2023-05-06T04:06:18.573Z,3.33
2023-05-06T04:08:46.491Z,3.60
2023-05-06T04:11:14.583Z,2.97
2023-05-06T04:13:42.525Z,3.27
2023-05-06T04:16:12.939Z,3.50
2023-05-06T04:18:40.832Z,3.67
2023-05-06T04:21:08.876Z,4.10
2023-05-06T04:23:36.782Z,3.80
2023-05-06T04:26:04.744Z,3.90
2023-05-06T04:28:32.787Z,4.10
2023-05-06T04:31:02.211Z,4.20
2023-05-06T04:33:32.721Z,4.67
2023-05-06T04:36:00.868Z,4.10
2023-05-06T04:38:31.913Z,4.10
2023-05-06T04:41:00.057Z,4.40
2023-05-06T04:43:28.177Z,4.63
2023-05-06T04:45:56.384Z,4.17
2023-05-06T04:48:24.597Z,10.90
2023-05-06T04:50:54.011Z,5.50
2023-05-06T04:53:21.935Z,4.30
2023-05-06T04:55:49.885Z,7.93
2023-05-06T04:58:19.099Z,11.47
2023-05-06T05:00:47.138Z,6.43
2023-05-06T05:03:15.243Z,6.53
2023-05-06T05:05:43.222Z,3.50
2023-05-06T05:08:13.363Z,2.83
2023-05-06T05:10:43.575Z,3.83
2023-05-06T05:13:11.780Z,4.40
2023-05-06T05:15:39.711Z,3.40
2023-05-06T05:18:07.779Z,2.53
2023-05-06T05:20:35.935Z,3.20
2023-05-06T05:23:03.813Z,2.87
2023-05-06T05:25:33.088Z,3.00
2023-05-06T05:28:01.239Z,3.13
2023-05-06T05:30:29.128Z,3.07
2023-05-06T05:32:57.171Z,3.13
2023-05-06T05:35:25.345Z,3.63
2023-05-06T05:37:53.271Z,3.30
2023-05-06T05:40:21.411Z,2.63
2023-05-06T05:42:50.800Z,3.50
2023-05-06T05:45:18.812Z,3.00
2023-05-06T05:47:46.679Z,2.77
2023-05-06T05:50:14.656Z,2.53
2023-05-06T05:52:42.536Z,2.53
2023-05-06T05:55:11.353Z,2.63
2023-05-06T05:57:39.405Z,3.23
2023-05-06T06:00:11.604Z,3.10
2023-05-06T06:02:41.394Z,2.20
2023-05-06T06:05:10.031Z,3.33
2023-05-06T06:07:38.416Z,2.80
2023-05-06T06:10:07.641Z,2.40
2023-05-06T06:12:35.663Z,3.00
2023-05-06T06:15:03.708Z,3.03
2023-05-06T06:17:33.363Z,2.80
2023-05-06T06:20:01.310Z,2.63
2023-05-06T06:22:29.981Z,3.60
2023-05-06T06:24:58.033Z,4.07
2023-05-06T06:27:26.476Z,3.00
2023-05-06T06:29:54.476Z,3.67
2023-05-06T06:32:22.329Z,4.20
2023-05-06T06:34:51.842Z,3.57
2023-05-06T06:37:19.744Z,3.30
2023-05-06T06:39:47.629Z,5.10
2023-05-06T06:42:15.672Z,3.57
2023-05-06T06:44:43.520Z,4.20
2023-05-06T06:47:11.389Z,3.43
2023-05-06T06:49:40.407Z,4.73
2023-05-06T06:52:09.865Z,9.80
2023-05-06T06:54:39.015Z,4.20
2023-05-06T06:57:07.737Z,7.67
2023-05-06T06:59:35.728Z,4.63
2023-05-06T07:02:04.017Z,5.20
2023-05-06T07:04:32.064Z,5.63
2023-05-06T07:07:00.130Z,5.50
2023-05-06T07:09:29.579Z,4.63
2023-05-06T07:11:58.562Z,5.97
2023-05-06T07:14:26.898Z,4.70
2023-05-06T07:16:54.853Z,4.93
2023-05-06T07:19:22.818Z,5.30
2023-05-06T07:21:50.991Z,4.47
2023-05-06T07:24:19.364Z,5.33
2023-05-06T07:26:48.726Z,5.13
2023-05-06T07:29:17.063Z,5.30
2023-05-06T07:31:45.033Z,5.40
2023-05-06T07:34:12.925Z,4.47
2023-05-06T07:36:43.412Z,4.00
2023-05-06T07:39:11.784Z,4.50
2023-05-06T07:41:39.848Z,3.80
2023-05-06T07:44:09.235Z,3.77
2023-05-06T07:46:37.205Z,3.07
2023-05-06T07:49:05.235Z,3.67
2023-05-06T07:51:33.235Z,3.30
2023-05-06T07:54:01.169Z,3.20
2023-05-06T07:56:29.116Z,3.93
2023-05-06T07:58:57.208Z,3.33
2023-05-06T08:01:26.567Z,4.43
2023-05-06T08:03:54.668Z,3.57
2023-05-06T08:06:22.621Z,3.40
2023-05-06T08:08:50.545Z,3.50
2023-05-06T08:11:19.538Z,3.20
2023-05-06T08:13:47.789Z,3.20
2023-05-06T08:16:15.765Z,3.30
2023-05-06T08:18:45.096Z,2.60
2023-05-06T08:21:13.129Z,3.17
2023-05-06T08:23:40.977Z,2.97
2023-05-06T08:26:08.903Z,3.57
2023-05-06T08:28:37.121Z,3.37
2023-05-06T08:31:05.564Z,2.87
2023-05-06T08:33:33.498Z,3.00
2023-05-06T08:36:02.950Z,2.87
2023-05-06T08:38:30.870Z,3.43
2023-05-06T08:41:04.620Z,3.20
2023-05-06T08:43:34.434Z,2.97
2023-05-06T08:46:02.516Z,2.83
2023-05-06T08:48:31.091Z,3.37
2023-05-06T08:51:03.358Z,3.00
2023-05-06T08:53:34.709Z,3.33
2023-05-06T08:56:04.785Z,2.50
2023-05-06T08:58:35.228Z,2.50
2023-05-06T09:01:04.450Z,2.70
2023-05-06T09:03:32.711Z,2.97
2023-05-06T09:06:00.910Z,2.63
2023-05-06T09:08:28.791Z,3.03
2023-05-06T09:10:58.571Z,2.30
2023-05-06T09:13:26.645Z,2.10
2023-05-06T09:15:55.801Z,2.23
2023-05-06T09:18:24.217Z,2.40
2023-05-06T09:20:52.134Z,4.80
2023-05-06T09:23:21.073Z,2.40
2023-05-06T09:25:49.696Z,2.80
2023-05-06T09:28:19.232Z,2.60
2023-05-06T09:30:48.400Z,3.13
2023-05-06T09:33:16.449Z,3.03
2023-05-06T09:35:45.851Z,2.50
2023-05-06T09:38:13.797Z,2.60
2023-05-06T09:40:41.861Z,2.80
2023-05-06T09:43:10.593Z,2.23
2023-05-06T09:45:40.186Z,2.80
2023-05-06T09:48:09.810Z,2.43
2023-05-06T09:50:38.144Z,2.57
2023-05-06T09:53:06.659Z,2.73
2023-05-06T09:55:35.101Z,2.40
2023-05-06T09:58:04.836Z,3.03
2023-05-06T10:00:33.338Z,2.80
2023-05-06T10:03:03.595Z,2.50
2023-05-06T10:05:33.203Z,2.67
2023-05-06T10:08:02.266Z,2.30
2023-05-06T10:10:31.195Z,2.63
2023-05-06T10:12:59.180Z,2.67
2023-05-06T10:15:27.720Z,2.43
2023-05-06T10:17:56.444Z,1.80
2023-05-06T10:20:28.371Z,2.20
2023-05-06T10:23:02.656Z,2.20
2023-05-06T10:25:36.393Z,1.80
2023-05-06T10:28:09.056Z,2.43
2023-05-06T10:30:42.564Z,1.83
2023-05-06T10:33:12.196Z,2.30
2023-05-06T10:35:49.187Z,1.90
2023-05-06T10:38:23.175Z,1.97
2023-05-06T10:40:52.187Z,1.80
2023-05-06T10:43:28.748Z,1.77
2023-05-06T10:46:04.643Z,1.83
2023-05-06T10:48:33.648Z,2.20
2023-05-06T10:51:24.937Z,2.00
2023-05-06T10:54:02.742Z,1.90
2023-05-06T10:56:32.602Z,2.43
2023-05-06T10:59:08.012Z,3.20
2023-05-06T11:01:36.974Z,1.90
2023-05-06T11:04:09.964Z,1.50
2023-05-06T11:06:44.774Z,1.43
2023-05-06T11:09:20.567Z,1.50
2023-05-06T11:12:04.335Z,1.30
2023-05-06T11:14:35.554Z,2.00
2023-05-06T11:17:09.051Z,2.60
2023-05-06T11:19:38.376Z,1.23
2023-05-06T11:22:08.368Z,1.97
2023-05-06T11:24:40.922Z,1.80
2023-05-06T11:27:09.813Z,1.70
2023-05-06T11:29:38.065Z,1.97
2023-05-06T11:32:08.723Z,2.40
2023-05-06T11:34:38.570Z,2.20
2023-05-06T11:37:10.661Z,2.33
2023-05-06T11:39:40.857Z,2.23
2023-05-06T11:42:09.501Z,1.87
2023-05-06T11:44:39.014Z,2.40
2023-05-06T11:47:09.322Z,3.13
2023-05-06T11:49:38.679Z,1.90
2023-05-06T11:52:09.466Z,1.67
2023-05-06T11:54:39.521Z,3.10
2023-05-06T11:57:07.483Z,2.80
2023-05-06T11:59:37.430Z,2.30
2023-05-06T12:02:07.627Z,2.30
2023-05-06T12:04:39.896Z,2.23
2023-05-06T12:07:10.963Z,2.17
2023-05-06T12:09:40.624Z,1.73
2023-05-06T12:12:10.110Z,1.90
2023-05-06T12:14:39.068Z,1.83
2023-05-06T12:17:07.272Z,1.60
2023-05-06T12:19:35.603Z,2.20
2023-05-06T12:22:20.465Z,7.00
2023-05-06T12:24:49.339Z,2.33
2023-05-06T12:27:32.912Z,1.87
2023-05-06T12:30:01.297Z,1.83
2023-05-06T12:32:29.223Z,2.90
2023-05-06T12:34:58.329Z,2.37
2023-05-06T12:37:29.839Z,1.57
2023-05-06T12:39:59.396Z,3.73
2023-05-06T12:42:27.654Z,1.80
2023-05-06T12:44:55.926Z,2.10
2023-05-06T12:47:25.518Z,2.10
2023-05-06T12:49:54.807Z,2.20
2023-05-06T12:52:24.423Z,1.90
2023-05-06T12:54:53.730Z,1.80
2023-05-06T12:57:22.179Z,1.97
2023-05-06T12:59:50.605Z,2.70
2023-05-06T13:02:18.810Z,1.70
2023-05-06T13:04:47.165Z,2.37
2023-05-06T13:07:15.509Z,1.53
2023-05-06T13:09:44.647Z,1.70
2023-05-06T13:12:14.223Z,2.10
2023-05-06T13:14:42.120Z,1.90
2023-05-06T13:17:11.011Z,1.90
2023-05-06T13:19:39.144Z,2.30
2023-05-06T13:22:07.124Z,1.70
2023-05-06T13:24:35.050Z,1.97
2023-05-06T13:27:03.338Z,2.07
2023-05-06T13:29:32.660Z,2.43
2023-05-06T13:32:00.693Z,1.40
2023-05-06T13:34:28.826Z,1.70
2023-05-06T13:36:57.187Z,1.60
2023-05-06T13:39:25.824Z,2.07
2023-05-06T13:41:54.363Z,1.63
2023-05-06T13:44:24.548Z,1.83
2023-05-06T13:46:54.042Z,2.20
2023-05-06T13:49:21.989Z,2.40
2023-05-06T13:51:49.908Z,1.57
2023-05-06T13:54:17.848Z,3.67
2023-05-06T13:56:45.891Z,1.50
2023-05-06T13:59:13.994Z,4.20
2023-05-06T14:01:42.831Z,2.07
2023-05-06T14:04:12.321Z,1.80
2023-05-06T14:06:40.595Z,1.40
2023-05-06T14:09:09.000Z,2.20
2023-05-06T14:11:37.056Z,1.33
2023-05-06T14:14:06.313Z,1.73
2023-05-06T14:16:34.329Z,1.53
2023-05-06T14:19:02.314Z,1.53
2023-05-06T14:21:32.017Z,1.60
2023-05-06T14:24:00.054Z,1.27
2023-05-06T14:26:28.307Z,1.40
2023-05-06T14:28:56.200Z,1.83
2023-05-06T14:31:24.574Z,1.23
2023-05-06T14:33:52.457Z,1.57
2023-05-06T14:36:20.762Z,1.30
2023-05-06T14:38:50.186Z,1.80
2023-05-06T14:41:18.114Z,2.10
2023-05-06T14:43:46.438Z,2.23
2023-05-06T14:46:15.913Z,1.27
2023-05-06T14:48:48.110Z,1.17
2023-05-06T14:51:16.434Z,1.57
2023-05-06T14:53:44.347Z,2.33
2023-05-06T14:56:14.032Z,1.43
2023-05-06T14:58:42.794Z,1.20
2023-05-06T15:01:10.904Z,1.33
2023-05-06T15:03:38.970Z,1.33
2023-05-06T15:06:07.186Z,1.40
2023-05-06T15:08:35.273Z,1.93
2023-05-06T15:11:04.302Z,1.60
2023-05-06T15:13:33.925Z,1.23
2023-05-06T15:16:01.847Z,1.27
2023-05-06T15:18:29.829Z,1.20
2023-05-06T15:20:58.743Z,2.13
2023-05-06T15:23:26.684Z,1.03
2023-05-06T15:25:54.790Z,1.60
2023-05-06T15:28:24.539Z,1.80
2023-05-06T15:30:54.222Z,1.97
2023-05-06T15:33:22.594Z,2.20
2023-05-06T15:35:50.531Z,2.00
2023-05-06T15:38:18.579Z,1.50
2023-05-06T15:40:51.929Z,1.60
2023-05-06T15:43:23.343Z,1.30
2023-05-06T15:45:53.314Z,2.10
2023-05-06T15:48:21.482Z,1.20
2023-05-06T15:50:49.672Z,4.53
2023-05-06T15:53:18.020Z,1.60
2023-05-06T15:55:52.972Z,1.13
2023-05-06T15:58:25.425Z,1.50
2023-05-06T16:00:54.867Z,1.27
2023-05-06T16:03:22.948Z,1.20
2023-05-06T16:05:50.965Z,1.20
2023-05-06T16:08:19.004Z,1.30
2023-05-06T16:10:47.086Z,1.40
2023-05-06T16:13:15.051Z,1.47
2023-05-06T16:15:43.245Z,1.10
2023-05-06T16:18:12.785Z,1.10
2023-05-06T16:20:41.174Z,1.40
2023-05-06T16:23:09.257Z,1.57
2023-05-06T16:25:38.835Z,1.80
2023-05-06T16:28:06.896Z,2.00
2023-05-06T16:30:35.124Z,1.77
2023-05-06T16:33:04.138Z,1.17
2023-05-06T16:35:33.919Z,1.63
2023-05-06T16:38:01.856Z,1.10
2023-05-06T16:40:31.187Z,1.10
2023-05-06T16:42:59.261Z,1.37
2023-05-06T16:45:27.145Z,1.77
2023-05-06T16:47:55.281Z,1.50
2023-05-06T16:50:23.289Z,1.47
2023-05-06T16:52:52.953Z,1.20
2023-05-06T16:55:21.953Z,1.90
2023-05-06T16:57:50.089Z,4.10
2023-05-06T17:00:18.970Z,1.90
2023-05-06T17:02:47.301Z,1.50
2023-05-06T17:05:15.310Z,1.50
2023-05-06T17:07:43.210Z,4.10
2023-05-06T17:10:13.251Z,1.43
2023-05-06T17:12:42.106Z,1.30
2023-05-06T17:15:10.969Z,1.40
2023-05-06T17:17:39.638Z,1.40
2023-05-06T17:20:09.277Z,2.00
2023-05-06T17:22:37.495Z,1.53
2023-05-06T17:25:05.977Z,1.40
2023-05-06T17:27:35.274Z,1.40
2023-05-06T17:30:03.346Z,1.70
2023-05-06T17:32:31.365Z,1.37
2023-05-06T17:34:59.260Z,1.20
2023-05-06T17:37:27.396Z,1.50
2023-05-06T17:39:55.634Z,1.47
2023-05-06T17:42:23.634Z,1.70
2023-05-06T17:44:52.928Z,1.97
2023-05-06T17:47:22.860Z,3.67
2023-05-06T17:49:53.441Z,1.83
2023-05-06T17:52:21.365Z,3.97
2023-05-06T17:55:05.705Z,2.10
2023-05-06T17:57:38.044Z,1.35
2023-05-06T18:00:09.324Z,2.00
2023-05-06T18:02:37.603Z,3.70
2023-05-06T18:05:06.369Z,6.10
2023-05-06T18:07:35.503Z,3.93
2023-05-06T18:10:03.617Z,5.47
2023-05-06T18:12:32.106Z,8.50
2023-05-06T18:15:01.024Z,9.17
2023-05-06T18:17:30.607Z,8.27
2023-05-06T18:19:58.601Z,6.33
2023-05-06T18:22:26.771Z,4.37
2023-05-06T18:24:55.360Z,2.60
2023-05-06T18:27:23.965Z,2.03
2023-05-06T18:29:51.892Z,1.60
2023-05-06T18:32:19.948Z,1.67
2023-05-06T18:34:49.352Z,1.93
2023-05-06T18:37:17.322Z,2.23
2023-05-06T18:39:45.640Z,2.17
2023-05-06T18:42:13.728Z,2.00
2023-05-06T18:44:43.515Z,1.90
2023-05-06T18:47:11.714Z,10.77
2023-05-06T18:49:39.676Z,5.67
2023-05-06T18:52:08.991Z,7.60
2023-05-06T18:54:36.940Z,2.70
2023-05-06T18:57:05.184Z,2.83
2023-05-06T18:59:33.590Z,2.30
2023-05-06T19:02:02.715Z,2.20
2023-05-06T19:04:31.867Z,2.40
2023-05-06T19:07:00.003Z,2.50
2023-05-06T19:09:29.512Z,3.60
2023-05-06T19:11:57.436Z,2.73
2023-05-06T19:14:25.666Z,2.40
2023-05-06T19:16:53.644Z,2.90
2023-05-06T19:19:21.776Z,2.50
2023-05-06T19:21:49.756Z,2.70
2023-05-06T19:24:17.625Z,2.37
2023-05-06T19:26:47.153Z,2.53
2023-05-06T19:29:15.727Z,2.47
2023-05-06T19:31:43.629Z,2.23
2023-05-06T19:34:11.553Z,2.53
2023-05-06T19:36:39.617Z,2.40
2023-05-06T19:39:07.479Z,2.37
2023-05-06T19:41:35.408Z,2.60
2023-05-06T19:44:05.059Z,3.70
2023-05-06T19:46:33.022Z,3.40
2023-05-06T19:49:01.058Z,2.60
2023-05-06T19:51:29.282Z,2.77
2023-05-06T19:53:57.216Z,3.03
2023-05-06T19:56:25.461Z,2.53
2023-05-06T19:58:53.551Z,3.27
2023-05-06T20:01:23.883Z,3.10
2023-05-06T20:03:51.958Z,2.97
2023-05-06T20:06:19.941Z,3.00
2023-05-06T20:08:47.836Z,2.77
2023-05-06T20:11:15.722Z,2.80
2023-05-06T20:13:43.630Z,3.43
2023-05-06T20:16:12.653Z,4.33
2023-05-06T20:18:42.750Z,3.80
2023-05-06T20:21:10.919Z,3.80
2023-05-06T20:23:38.886Z,4.30
2023-05-06T20:26:06.760Z,4.10
2023-05-06T20:28:37.826Z,3.67
2023-05-06T20:31:06.188Z,3.27
2023-05-06T20:33:34.374Z,4.23
2023-05-06T20:36:03.884Z,4.50
2023-05-06T20:38:31.840Z,4.00
2023-05-06T20:41:02.652Z,4.20
2023-05-06T20:43:30.659Z,4.87
2023-05-06T20:45:58.549Z,4.80
2023-05-06T20:48:27.807Z,4.00
2023-05-06T20:50:57.513Z,4.40
2023-05-06T20:53:27.194Z,3.80
2023-05-06T20:55:55.334Z,4.47
2023-05-06T20:58:23.559Z,4.17
2023-05-06T21:00:51.480Z,4.60
2023-05-06T21:03:19.445Z,4.70
2023-05-06T21:05:47.573Z,5.43
2023-05-06T21:08:16.130Z,4.70
2023-05-06T21:10:45.467Z,5.50
2023-05-06T21:13:13.393Z,4.30
2023-05-06T21:15:41.275Z,4.40
2023-05-06T21:18:10.274Z,5.13
2023-05-06T21:20:38.308Z,4.47
2023-05-06T21:23:06.380Z,4.33
2023-05-06T21:25:34.306Z,4.20
2023-05-06T21:28:06.094Z,4.50
2023-05-06T21:30:36.528Z,4.50
2023-05-06T21:33:05.024Z,5.23
2023-05-06T21:35:33.281Z,5.70
2023-05-06T21:38:01.216Z,4.80
2023-05-06T21:40:29.391Z,6.40
2023-05-06T21:42:57.754Z,5.03
2023-05-06T21:45:27.473Z,5.47
2023-05-06T21:47:55.555Z,4.83
2023-05-06T21:50:23.768Z,5.37
2023-05-06T21:52:51.871Z,4.50
2023-05-06T21:55:20.629Z,4.20
2023-05-06T21:57:48.530Z,5.17
2023-05-06T22:00:17.169Z,6.40
2023-05-06T22:02:46.535Z,4.87
2023-05-06T22:05:14.540Z,4.70
2023-05-06T22:07:42.459Z,5.30
2023-05-06T22:10:11.158Z,4.50
2023-05-06T22:12:39.056Z,5.20
2023-05-06T22:15:08.778Z,4.63
2023-05-06T22:17:38.111Z,4.60
2023-05-06T22:20:10.849Z,4.37
2023-05-06T22:22:39.171Z,4.67
2023-05-06T22:25:08.684Z,5.10
2023-05-06T22:27:37.044Z,4.00
2023-05-06T22:30:05.472Z,5.90
2023-05-06T22:32:33.408Z,5.53
2023-05-06T22:35:01.380Z,4.30
2023-05-06T22:37:30.773Z,5.60
2023-05-06T22:39:58.825Z,5.20
2023-05-06T22:42:26.927Z,4.40
2023-05-06T22:44:54.843Z,5.70
2023-05-06T22:47:22.820Z,5.13
2023-05-06T22:49:50.887Z,4.70
2023-05-06T22:52:19.235Z,5.10
2023-05-06T22:54:48.498Z,4.53
2023-05-06T22:57:16.657Z,5.23
2023-05-06T22:59:44.681Z,5.10
2023-05-06T23:02:12.778Z,5.67
2023-05-06T23:04:41.346Z,4.20
2023-05-06T23:07:09.314Z,5.97
2023-05-06T23:09:37.281Z,4.77
2023-05-06T23:12:06.906Z,6.70
2023-05-06T23:14:34.840Z,5.70
2023-05-06T23:17:02.879Z,4.30
2023-05-06T23:19:30.873Z,5.33
2023-05-06T23:21:58.741Z,5.03
2023-05-06T23:24:26.837Z,5.37
2023-05-06T23:26:54.893Z,5.40
2023-05-06T23:29:24.191Z,5.50
2023-05-06T23:31:52.077Z,4.47
2023-05-06T23:34:20.123Z,4.77
2023-05-06T23:36:48.064Z,4.90
2023-05-06T23:39:16.319Z,5.40
2023-05-06T23:41:44.306Z,5.20
2023-05-06T23:44:12.197Z,4.70
2023-05-06T23:46:41.574Z,5.87
2023-05-06T23:49:10.939Z,5.67
2023-05-06T23:51:38.823Z,5.53
2023-05-06T23:54:06.803Z,5.43
2023-05-06T23:56:34.700Z,5.07
2023-05-06T23:59:02.645Z,5.40
